Time;durP1;ratioP1;P1;durP2;ratioP2;P2;SDS_P1;SDS_P2;PMS_P1;PMS_P2;Temp;Humidity;BMP_temperature;BMP_pressure;BME280_temperature;BME280_humidity;BME280_pressure;Samples;Min_cycle;Max_cycle;Signal;HPM_P1;HPM_P2
2021/03/01 00:00:14;;;;;;;8.20;5.30;;;25.00;7.20;;;;;;4403097;32;20096;-63
2021/03/01 00:02:41;;;;;;;6.30;4.65;;;24.90;7.10;;;;;;4392748;32;20072;-63
2021/03/01 00:05:09;;;;;;;8.50;5.65;;;25.00;7.20;;;;;;4390393;32;20545;-63
2021/03/01 00:07:35;;;;;;;7.25;4.95;;;25.00;7.10;;;;;;4398876;32;20160;-62
2021/03/01 00:10:01;;;;;;;9.88;5.35;;;25.00;7.10;;;;;;4391242;32;20256;-63
2021/03/01 00:12:27;;;;;;;7.22;4.68;;;25.00;7.10;;;;;;4413536;32;20085;-62
2021/03/01 00:14:54;;;;;;;8.68;5.32;;;25.00;7.10;;;;;;4402563;32;20163;-62
2021/03/01 00:17:21;;;;;;;8.95;5.30;;;24.90;7.10;;;;;;4403778;32;20131;-63
2021/03/01 00:19:47;;;;;;;9.30;5.25;;;24.90;7.20;;;;;;4379954;32;20077;-62
2021/03/01 00:22:13;;;;;;;7.37;5.32;;;24.90;7.20;;;;;;4396575;32;20078;-63
2021/03/01 00:24:39;;;;;;;7.95;5.32;;;24.90;7.20;;;;;;4402174;32;20081;-63
2021/03/01 00:27:06;;;;;;;6.25;4.53;;;24.90;7.20;;;;;;4367388;32;20165;-64
2021/03/01 00:29:32;;;;;;;7.50;5.35;;;24.90;7.10;;;;;;4400444;32;20472;-63
2021/03/01 00:31:58;;;;;;;8.52;5.45;;;24.90;7.20;;;;;;4398457;32;20097;-62
2021/03/01 00:34:25;;;;;;;8.98;5.05;;;24.90;7.10;;;;;;4375002;32;20077;-63
2021/03/01 00:36:51;;;;;;;8.05;4.90;;;25.00;7.10;;;;;;4387160;32;20082;-63
2021/03/01 00:39:17;;;;;;;8.15;5.28;;;24.90;7.10;;;;;;4386783;32;20131;-62
2021/03/01 00:41:44;;;;;;;8.55;5.30;;;24.90;7.10;;;;;;4370904;32;20521;-64
2021/03/01 00:44:10;;;;;;;7.85;4.80;;;24.90;7.10;;;;;;4386472;32;20079;-62
2021/03/01 00:46:36;;;;;;;7.97;5.40;;;24.90;7.10;;;;;;4389134;32;20070;-65
2021/03/01 00:49:03;;;;;;;7.57;4.78;;;24.90;7.10;;;;;;4392461;32;20061;-63
2021/03/01 00:51:29;;;;;;;7.97;5.00;;;24.90;7.10;;;;;;4362026;32;20066;-63
2021/03/01 00:53:55;;;;;;;7.28;4.95;;;24.90;7.10;;;;;;4389648;32;20089;-62
2021/03/01 00:56:21;;;;;;;7.25;4.82;;;24.90;7.10;;;;;;4366260;32;20086;-63
2021/03/01 00:58:48;;;;;;;8.00;5.47;;;24.90;7.10;;;;;;4355716;32;20078;-63
2021/03/01 01:01:14;;;;;;;7.35;5.18;;;24.90;7.10;;;;;;4351294;32;20598;-63
2021/03/01 01:03:41;;;;;;;7.03;4.80;;;24.90;7.10;;;;;;4364029;32;20129;-62
2021/03/01 01:06:07;;;;;;;8.63;5.68;;;24.90;7.10;;;;;;4366052;32;20081;-63
2021/03/01 01:08:34;;;;;;;9.30;5.20;;;25.00;7.10;;;;;;4351933;32;20065;-64
2021/03/01 01:11:00;;;;;;;8.48;5.50;;;24.90;7.00;;;;;;4371791;32;20080;-62
2021/03/01 01:13:26;;;;;;;8.70;4.75;;;24.90;7.10;;;;;;4376542;32;20109;-63
2021/03/01 01:15:52;;;;;;;8.52;5.57;;;24.90;7.10;;;;;;4390543;32;20162;-64
2021/03/01 01:18:19;;;;;;;8.70;5.68;;;24.90;7.10;;;;;;4350948;32;20146;-63
2021/03/01 01:20:45;;;;;;;8.25;5.57;;;24.90;7.10;;;;;;4369581;32;20162;-64
2021/03/01 01:23:11;;;;;;;9.00;6.30;;;24.90;7.10;;;;;;4363467;32;20070;-63
2021/03/01 01:25:37;;;;;;;9.27;5.90;;;24.90;7.10;;;;;;4348163;32;20150;-62
2021/03/01 01:28:03;;;;;;;8.43;5.32;;;24.90;7.10;;;;;;4368362;32;20151;-63
2021/03/01 01:30:30;;;;;;;8.63;5.70;;;24.90;7.10;;;;;;4382691;32;20617;-63
2021/03/01 01:32:56;;;;;;;10.05;6.60;;;24.90;7.10;;;;;;4376013;32;20093;-63
2021/03/01 01:35:22;;;;;;;9.02;6.20;;;24.80;7.10;;;;;;4372178;32;20116;-63
2021/03/01 01:37:48;;;;;;;8.90;5.40;;;24.90;7.10;;;;;;4365295;32;20187;-64
2021/03/01 01:40:20;;;;;;;7.90;5.60;;;24.90;7.10;;;;;;4355360;32;20070;-62
2021/03/01 01:42:48;;;;;;;7.97;5.45;;;24.90;7.10;;;;;;4363597;32;20163;-64
2021/03/01 01:45:16;;;;;;;8.57;5.97;;;24.90;7.10;;;;;;4383444;32;20101;-62
2021/03/01 01:47:45;;;;;;;10.07;5.82;;;24.90;7.10;;;;;;4377758;32;20093;-62
2021/03/01 01:50:12;;;;;;;8.85;5.80;;;24.90;7.00;;;;;;4369438;32;20134;-62
2021/03/01 01:52:38;;;;;;;8.93;5.45;;;24.90;7.00;;;;;;4347238;32;20073;-63
2021/03/01 01:55:06;;;;;;;9.10;5.35;;;24.90;7.00;;;;;;4363887;32;20518;-63
2021/03/01 01:57:32;;;;;;;8.13;5.47;;;24.90;7.00;;;;;;4359231;32;20131;-63
2021/03/01 01:59:58;;;;;;;7.97;5.47;;;24.90;7.10;;;;;;4376659;32;20072;-63
2021/03/01 02:02:25;;;;;;;9.48;5.95;;;24.90;7.10;;;;;;4377818;32;20153;-64
2021/03/01 02:05:10;;;;;;;9.40;6.10;;;24.90;7.00;;;;;;4350457;32;20074;-61
2021/03/01 02:08:07;;;;;;;8.55;5.82;;;24.90;7.10;;;;;;4372072;32;20474;-64
2021/03/01 02:10:51;;;;;;;10.68;7.03;;;24.90;7.00;;;;;;4375264;32;20074;-64
2021/03/01 02:13:34;;;;;;;10.77;6.22;;;24.90;7.00;;;;;;4364761;32;20092;-63
2021/03/01 02:16:12;;;;;;;9.48;5.25;;;24.80;7.00;;;;;;4386950;32;20066;-63
2021/03/01 02:18:38;;;;;;;8.00;5.60;;;24.90;7.00;;;;;;4366605;32;20083;-64
2021/03/01 02:21:12;;;;;;;7.57;5.43;;;24.90;7.10;;;;;;4379996;32;20074;-63
2021/03/01 02:23:41;;;;;;;8.77;5.72;;;24.90;7.00;;;;;;4384911;32;20140;-62
2021/03/01 02:26:32;;;;;;;8.10;5.72;;;24.80;7.00;;;;;;4377068;32;20499;-62
2021/03/01 02:29:04;;;;;;;9.23;5.70;;;24.90;7.00;;;;;;4364515;32;20209;-63
2021/03/01 02:31:30;;;;;;;9.48;5.72;;;24.90;7.00;;;;;;4351330;32;20082;-62
2021/03/01 02:33:58;;;;;;;9.52;6.05;;;24.80;7.10;;;;;;4374931;32;20157;-63
2021/03/01 02:36:33;;;;;;;8.45;5.62;;;24.90;7.00;;;;;;4362776;32;20161;-63
2021/03/01 02:39:00;;;;;;;10.25;6.12;;;24.90;6.90;;;;;;4380284;32;20078;-66
2021/03/01 02:41:26;;;;;;;11.18;5.93;;;24.80;7.00;;;;;;4374986;32;20074;-63
2021/03/01 02:43:53;;;;;;;8.48;6.10;;;24.80;7.10;;;;;;4351049;32;20093;-63
2021/03/01 02:46:19;;;;;;;8.57;5.75;;;24.90;7.00;;;;;;4350639;32;20099;-62
2021/03/01 02:48:46;;;;;;;8.98;6.25;;;24.90;7.00;;;;;;4349712;32;20077;-63
2021/03/01 02:51:12;;;;;;;7.60;5.68;;;24.80;7.00;;;;;;4356439;32;20481;-63
2021/03/01 02:53:40;;;;;;;10.18;6.35;;;24.90;7.00;;;;;;4374939;32;20081;-63
2021/03/01 02:56:06;;;;;;;8.43;5.93;;;24.80;6.90;;;;;;4364527;32;20086;-63
2021/03/01 02:58:35;;;;;;;10.02;6.07;;;24.90;7.00;;;;;;4362608;32;20139;-62
2021/03/01 03:01:01;;;;;;;10.02;6.20;;;24.80;7.00;;;;;;4373181;32;20070;-62
2021/03/01 03:03:28;;;;;;;8.70;5.70;;;24.80;7.00;;;;;;4374303;32;20146;-63
2021/03/01 03:05:54;;;;;;;11.10;6.45;;;24.90;6.90;;;;;;4373954;32;20090;-62
2021/03/01 03:08:21;;;;;;;8.65;6.03;;;24.90;6.90;;;;;;4350053;32;20441;-64
2021/03/01 03:10:49;;;;;;;9.13;6.10;;;24.90;6.90;;;;;;4342003;32;20089;-62
2021/03/01 03:13:15;;;;;;;9.00;6.30;;;24.90;6.90;;;;;;4359502;32;20149;-64
2021/03/01 03:15:42;;;;;;;9.95;6.35;;;24.80;6.90;;;;;;4364987;32;20086;-63
2021/03/01 03:18:10;;;;;;;10.93;6.78;;;24.80;7.00;;;;;;4376979;32;20498;-63
2021/03/01 03:20:37;;;;;;;8.50;6.20;;;24.80;7.00;;;;;;4352656;32;20448;-65
2021/03/01 03:23:04;;;;;;;9.35;6.30;;;24.80;7.00;;;;;;4373814;32;20066;-63
2021/03/01 03:25:30;;;;;;;12.07;6.60;;;24.80;7.30;;;;;;4383239;32;20078;-62
2021/03/01 03:27:57;;;;;;;9.00;6.37;;;24.90;6.90;;;;;;4385154;32;20105;-63
2021/03/01 03:30:26;;;;;;;8.05;5.85;;;24.90;6.90;;;;;;4373295;32;20077;-63
2021/03/01 03:32:54;;;;;;;8.40;5.90;;;24.80;6.90;;;;;;4353317;32;20531;-63
2021/03/01 03:35:20;;;;;;;9.85;6.20;;;24.80;7.00;;;;;;4347291;32;20063;-63
2021/03/01 03:38:27;;;;;;;8.75;6.60;;;24.90;7.00;;;;;;4365101;32;20532;-64
2021/03/01 03:40:58;;;;;;;9.52;6.10;;;24.80;6.90;;;;;;4366171;32;20161;-63
2021/03/01 03:43:25;;;;;;;8.07;5.85;;;24.90;6.90;;;;;;4360283;32;20085;-62
2021/03/01 03:45:53;;;;;;;10.77;5.78;;;24.80;7.00;;;;;;4364498;32;20501;-64
2021/03/01 03:48:21;;;;;;;9.20;6.65;;;24.80;6.90;;;;;;4361480;32;20091;-63
2021/03/01 03:50:59;;;;;;;10.52;6.25;;;24.80;7.00;;;;;;4366074;32;20489;-62
2021/03/01 03:53:31;;;;;;;8.20;6.30;;;24.90;6.90;;;;;;4360452;32;20448;-63
2021/03/01 03:55:59;;;;;;;9.13;6.22;;;24.90;6.90;;;;;;4363528;32;20092;-64
2021/03/01 03:58:30;;;;;;;8.13;5.75;;;24.80;6.90;;;;;;4362147;32;20110;-62
2021/03/01 04:00:58;;;;;;;12.45;6.00;;;24.70;6.90;;;;;;4354902;32;20096;-63
2021/03/01 04:03:24;;;;;;;9.95;5.97;;;24.80;6.90;;;;;;4325346;32;20084;-63
2021/03/01 04:05:52;;;;;;;11.73;6.45;;;24.80;6.90;;;;;;4362340;32;20062;-63
2021/03/01 04:08:18;;;;;;;8.52;5.85;;;24.90;6.90;;;;;;4374494;32;20166;-63
2021/03/01 04:10:49;;;;;;;9.52;6.50;;;24.80;6.90;;;;;;4377673;32;20098;-62
2021/03/01 04:13:15;;;;;;;9.57;5.75;;;24.90;6.90;;;;;;4374458;32;20153;-62
2021/03/01 04:15:48;;;;;;;7.62;5.70;;;24.80;6.90;;;;;;4346285;32;20081;-63
2021/03/01 04:18:34;;;;;;;9.57;6.05;;;24.80;6.90;;;;;;4344381;32;20488;-61
2021/03/01 04:21:03;;;;;;;9.77;5.78;;;24.80;6.90;;;;;;4386527;32;20497;-65
2021/03/01 04:23:31;;;;;;;9.38;6.35;;;24.80;6.90;;;;;;4341893;32;20088;-62
2021/03/01 04:25:57;;;;;;;8.27;5.85;;;24.80;6.90;;;;;;4369432;32;20185;-63
2021/03/01 04:28:23;;;;;;;9.38;6.20;;;24.80;6.90;;;;;;4369541;32;20081;-63
2021/03/01 04:30:49;;;;;;;10.52;6.40;;;24.90;6.90;;;;;;4380502;32;20074;-63
2021/03/01 04:33:17;;;;;;;10.50;6.85;;;24.80;6.90;;;;;;4349923;32;20537;-62
2021/03/01 04:35:45;;;;;;;10.77;6.93;;;24.90;6.90;;;;;;4368506;32;20066;-62
2021/03/01 04:38:11;;;;;;;9.00;6.07;;;24.90;6.90;;;;;;4370936;32;20081;-61
2021/03/01 04:40:38;;;;;;;12.02;6.95;;;24.90;6.80;;;;;;4371241;32;20074;-63
2021/03/01 04:43:04;;;;;;;10.75;6.53;;;24.80;6.80;;;;;;4370624;32;20070;-62
2021/03/01 04:45:31;;;;;;;9.00;6.50;;;24.80;6.80;;;;;;4378465;32;20143;-62
2021/03/01 04:47:57;;;;;;;10.63;6.03;;;24.80;6.80;;;;;;4340484;32;20097;-63
2021/03/01 04:50:23;;;;;;;9.05;6.05;;;24.80;6.90;;;;;;4358253;32;20073;-63
2021/03/01 04:52:50;;;;;;;9.77;6.03;;;24.80;6.80;;;;;;4374494;32;20074;-63
2021/03/01 04:55:16;;;;;;;7.85;5.32;;;24.90;6.80;;;;;;4377203;32;20070;-63
2021/03/01 04:57:43;;;;;;;9.15;5.60;;;24.90;6.80;;;;;;4367286;32;20081;-62
2021/03/01 05:00:10;;;;;;;9.98;6.10;;;24.90;6.80;;;;;;4394124;32;20163;-64
2021/03/01 05:02:39;;;;;;;8.02;5.45;;;24.90;6.80;;;;;;4374614;32;20060;-63
2021/03/01 05:05:07;;;;;;;9.93;6.82;;;24.80;6.70;;;;;;4370738;32;20104;-62
2021/03/01 05:07:35;;;;;;;11.12;7.50;;;24.90;6.80;;;;;;4379001;32;20113;-63
2021/03/01 05:10:02;;;;;;;9.73;7.10;;;24.90;6.80;;;;;;4366706;32;20070;-63
2021/03/01 05:12:28;;;;;;;10.90;6.50;;;24.90;6.80;;;;;;4367099;32;20077;-63
2021/03/01 05:14:55;;;;;;;10.18;6.85;;;24.80;6.80;;;;;;4364637;32;20518;-64
2021/03/01 05:17:21;;;;;;;6.15;3.33;;;24.80;6.80;;;;;;4384681;32;20227;-63
2021/03/01 05:19:47;;;;;;;10.95;6.30;;;24.90;6.70;;;;;;4366511;32;20264;-65
2021/03/01 05:22:13;;;;;;;10.05;6.60;;;24.90;6.70;;;;;;4376105;32;20081;-62
2021/03/01 05:24:40;;;;;;;8.60;5.45;;;24.90;6.70;;;;;;4379837;32;20070;-62
2021/03/01 05:27:06;;;;;;;8.77;5.28;;;24.90;6.70;;;;;;4347643;32;20081;-63
2021/03/01 05:29:34;;;;;;;10.98;6.43;;;24.90;6.70;;;;;;4367562;32;20066;-62
2021/03/01 05:32:00;;;;;;;9.48;6.12;;;24.90;6.70;;;;;;4362655;32;20536;-66
2021/03/01 05:34:26;;;;;;;8.43;5.65;;;25.00;6.70;;;;;;4379032;32;20157;-62
2021/03/01 05:36:52;;;;;;;10.43;7.35;;;25.00;6.70;;;;;;4368565;32;20480;-63
2021/03/01 05:39:19;;;;;;;10.38;5.95;;;25.00;6.70;;;;;;4377605;32;20086;-63
2021/03/01 05:41:46;;;;;;;10.10;6.15;;;25.00;6.70;;;;;;4348939;32;20186;-63
2021/03/01 05:44:13;;;;;;;9.77;6.05;;;25.00;6.70;;;;;;4363720;32;20066;-62
2021/03/01 05:46:43;;;;;;;8.10;5.22;;;25.00;6.60;;;;;;4367177;32;20156;-61
2021/03/01 05:49:10;;;;;;;8.88;6.20;;;25.00;6.70;;;;;;4361075;32;20062;-66
2021/03/01 05:51:37;;;;;;;8.65;5.80;;;25.00;7.00;;;;;;4387469;32;20078;-67
2021/03/01 05:54:04;;;;;;;9.20;6.65;;;25.00;7.10;;;;;;4373440;32;20243;-68
2021/03/01 05:56:31;;;;;;;9.85;6.50;;;25.10;7.00;;;;;;4388811;32;20082;-68
2021/03/01 05:58:57;;;;;;;9.43;6.60;;;25.10;7.10;;;;;;4355858;32;20070;-70
2021/03/01 06:01:24;;;;;;;9.38;5.82;;;25.10;7.30;;;;;;4363266;32;20082;-72
2021/03/01 06:03:50;;;;;;;8.43;5.93;;;25.10;7.20;;;;;;4354941;32;20066;-69
2021/03/01 06:06:17;;;;;;;9.07;5.95;;;25.10;7.30;;;;;;4358058;32;20573;-70
2021/03/01 06:08:43;;;;;;;8.73;5.70;;;25.10;7.20;;;;;;4385196;32;20119;-63
2021/03/01 06:11:10;;;;;;;9.57;6.18;;;25.20;7.50;;;;;;4371936;32;20448;-62
2021/03/01 06:13:36;;;;;;;9.90;6.12;;;24.80;7.60;;;;;;4373536;32;20074;-61
2021/03/01 06:16:04;;;;;;;10.63;5.95;;;24.70;8.80;;;;;;4351402;32;20527;-62
2021/03/01 06:18:30;;;;;;;9.60;5.30;;;24.60;7.90;;;;;;4373563;32;20104;-62
2021/03/01 06:21:13;;;;;;;10.75;7.03;;;24.60;8.00;;;;;;4364116;32;20486;-61
2021/03/01 06:23:41;;;;;;;7.15;4.47;;;24.50;8.00;;;;;;4358118;32;20520;-61
2021/03/01 06:26:32;;;;;;;7.90;5.07;;;24.60;8.10;;;;;;4364179;32;20111;-61
2021/03/01 06:29:08;;;;;;;8.55;5.90;;;24.70;8.10;;;;;;4363805;32;20155;-60
2021/03/01 06:31:47;;;;;;;8.60;4.93;;;24.70;8.10;;;;;;4387516;32;20094;-61
2021/03/01 06:34:32;;;;;;;5.50;3.90;;;24.60;8.20;;;;;;4350322;32;20089;-60
2021/03/01 06:37:17;;;;;;;6.25;3.50;;;24.70;8.20;;;;;;4377146;32;20169;-59
2021/03/01 06:39:50;;;;;;;8.27;5.35;;;24.60;8.20;;;;;;4349583;32;20076;-61
2021/03/01 06:42:16;;;;;;;7.72;5.37;;;24.60;8.20;;;;;;4348527;32;20101;-61
2021/03/01 06:44:46;;;;;;;3.50;2.25;;;24.60;8.30;;;;;;4383981;32;20235;-61
2021/03/01 06:47:12;;;;;;;9.30;4.75;;;24.70;8.30;;;;;;4377131;32;20090;-62
2021/03/01 06:49:40;;;;;;;9.15;5.70;;;24.60;8.40;;;;;;4354523;32;20377;-62
2021/03/01 06:52:07;;;;;;;8.52;5.40;;;24.60;8.30;;;;;;4351576;32;20097;-60
2021/03/01 06:54:34;;;;;;;10.20;6.97;;;24.70;8.40;;;;;;4380978;32;20500;-60
2021/03/01 06:57:00;;;;;;;8.50;5.62;;;24.80;8.50;;;;;;4374489;32;20069;-61
2021/03/01 06:59:26;;;;;;;8.73;5.28;;;24.70;8.50;;;;;;4374223;32;20086;-60
2021/03/01 07:01:58;;;;;;;9.63;5.30;;;24.90;8.70;;;;;;4350561;32;20174;-61
2021/03/01 07:04:26;;;;;;;9.65;6.60;;;25.00;8.80;;;;;;4368666;32;20463;-60
2021/03/01 07:06:55;;;;;;;7.82;5.87;;;25.00;8.90;;;;;;4349044;32;20066;-61
2021/03/01 07:09:33;;;;;;;9.07;5.75;;;25.00;9.00;;;;;;4386920;32;20082;-61
2021/03/01 07:11:59;;;;;;;9.55;6.10;;;24.90;9.20;;;;;;4368494;32;20157;-61
2021/03/01 07:14:27;;;;;;;8.68;5.37;;;24.90;9.20;;;;;;4369252;32;20521;-61
2021/03/01 07:16:55;;;;;;;7.37;4.37;;;24.90;9.30;;;;;;4364096;32;20063;-62
2021/03/01 07:19:30;;;;;;;10.05;6.43;;;24.90;9.30;;;;;;4348591;32;20080;-62
2021/03/01 07:22:09;;;;;;;11.12;5.65;;;24.90;9.40;;;;;;4356920;32;20073;-61
2021/03/01 07:24:35;;;;;;;8.55;6.35;;;25.00;9.30;;;;;;4368690;32;20576;-60
2021/03/01 07:27:04;;;;;;;6.45;4.32;;;25.00;9.50;;;;;;4347663;32;20104;-61
2021/03/01 07:29:32;;;;;;;9.07;6.18;;;25.00;9.50;;;;;;4379919;32;20081;-62
2021/03/01 07:32:07;;;;;;;7.03;4.85;;;25.00;9.60;;;;;;4371190;32;20092;-61
2021/03/01 07:34:35;;;;;;;8.52;5.93;;;25.00;9.40;;;;;;4360297;32;20078;-66
2021/03/01 07:37:04;;;;;;;10.30;6.53;;;25.00;9.70;;;;;;4370898;32;20070;-63
2021/03/01 07:39:31;;;;;;;9.07;6.53;;;25.00;9.70;;;;;;4348131;32;20071;-60
2021/03/01 07:41:58;;;;;;;10.32;6.85;;;25.10;9.70;;;;;;4352373;32;20194;-62
2021/03/01 07:44:25;;;;;;;9.27;6.40;;;25.00;9.60;;;;;;4383444;32;20189;-60
2021/03/01 07:46:52;;;;;;;9.70;6.28;;;25.00;9.70;;;;;;4360730;32;20077;-60
2021/03/01 07:49:44;;;;;;;9.48;5.68;;;25.00;9.80;;;;;;4348796;32;20089;-60
2021/03/01 07:52:19;;;;;;;9.43;6.50;;;25.00;9.80;;;;;;4354523;32;20066;-63
2021/03/01 07:54:59;;;;;;;8.83;5.57;;;25.00;9.80;;;;;;4372095;32;20062;-64
2021/03/01 07:57:27;;;;;;;8.52;6.03;;;25.10;9.90;;;;;;4352569;32;20105;-61
2021/03/01 07:59:57;;;;;;;9.75;6.62;;;25.00;9.90;;;;;;4354814;32;20078;-60
2021/03/01 08:02:25;;;;;;;10.98;6.57;;;25.10;10.00;;;;;;4385870;32;20100;-61
2021/03/01 08:04:53;;;;;;;11.65;6.78;;;25.10;10.00;;;;;;4366550;32;20603;-62
2021/03/01 08:07:39;;;;;;;8.73;5.87;;;25.10;10.00;;;;;;4358373;32;20442;-61
2021/03/01 08:10:11;;;;;;;8.50;5.57;;;25.10;10.00;;;;;;4365891;32;20181;-62
2021/03/01 08:12:39;;;;;;;10.27;5.72;;;25.10;10.10;;;;;;4374601;32;20174;-62
2021/03/01 08:15:08;;;;;;;8.23;5.50;;;25.20;9.90;;;;;;4371081;32;20085;-61
2021/03/01 08:17:36;;;;;;;7.53;4.87;;;25.30;10.00;;;;;;4355568;32;20509;-60
2021/03/01 08:20:14;;;;;;;9.18;5.50;;;25.20;10.10;;;;;;4368644;32;20077;-60
2021/03/01 08:23:05;;;;;;;9.05;4.60;;;25.10;10.30;;;;;;4381203;32;20501;-61
2021/03/01 08:25:52;;;;;;;9.98;6.53;;;25.10;10.30;;;;;;4383212;32;20079;-61
2021/03/01 08:28:25;;;;;;;8.73;6.25;;;25.20;10.40;;;;;;4388888;32;20537;-61
2021/03/01 08:31:22;;;;;;;9.18;6.57;;;25.10;10.30;;;;;;4387293;32;20069;-61
2021/03/01 08:33:48;;;;;;;9.80;5.60;;;25.10;10.30;;;;;;4372690;32;20078;-63
2021/03/01 08:36:14;;;;;;;10.32;6.47;;;25.20;10.30;;;;;;4379577;32;20143;-63
2021/03/01 08:38:45;;;;;;;4.78;3.10;;;25.10;10.30;;;;;;4372720;32;20077;-62
2021/03/01 08:41:30;;;;;;;10.50;4.87;;;25.20;10.40;;;;;;4371155;32;20074;-61
2021/03/01 08:43:56;;;;;;;7.43;4.55;;;25.10;10.30;;;;;;4384064;32;20102;-60
2021/03/01 08:46:22;;;;;;;8.02;5.43;;;25.10;10.50;;;;;;4375632;32;20059;-61
2021/03/01 08:48:54;;;;;;;8.20;5.62;;;25.20;10.40;;;;;;4363459;32;20465;-61
2021/03/01 08:51:20;;;;;;;8.98;4.72;;;25.20;10.50;;;;;;4377648;32;20094;-61
2021/03/01 08:53:48;;;;;;;6.90;4.80;;;25.10;10.50;;;;;;4375152;32;20074;-60
2021/03/01 08:56:22;;;;;;;8.55;4.60;;;25.20;10.40;;;;;;4381889;32;20067;-59
2021/03/01 08:58:48;;;;;;;8.88;6.22;;;25.20;10.50;;;;;;4363990;32;20062;-59
2021/03/01 09:01:17;;;;;;;11.32;7.95;;;25.30;10.40;;;;;;4351318;32;20077;-60
2021/03/01 09:03:45;;;;;;;9.98;6.78;;;25.30;10.50;;;;;;4362846;32;20058;-58
2021/03/01 09:06:22;;;;;;;8.48;5.00;;;25.40;10.40;;;;;;4380789;32;20066;-59
2021/03/01 09:08:52;;;;;;;;;;;25.30;10.40;;;;;;4354449;32;20085;-58
2021/03/01 09:11:21;;;;;;;10.32;7.07;;;25.20;10.40;;;;;;4362772;32;20407;-63
2021/03/01 09:13:49;;;;;;;9.35;6.10;;;25.30;10.40;;;;;;4376566;32;20476;-62
2021/03/01 09:16:23;;;;;;;10.70;6.03;;;25.20;10.40;;;;;;4375771;32;20509;-58
2021/03/01 09:18:51;;;;;;;9.80;6.10;;;25.20;10.50;;;;;;4377276;32;20109;-59
2021/03/01 09:21:18;;;;;;;10.45;5.82;;;25.20;10.50;;;;;;4381028;32;20074;-60
2021/03/01 09:23:55;;;;;;;11.45;6.35;;;25.30;10.60;;;;;;4373898;32;20489;-59
2021/03/01 09:26:34;;;;;;;8.55;6.00;;;25.20;10.60;;;;;;4384614;32;20070;-60
2021/03/01 09:29:07;;;;;;;8.93;5.78;;;25.30;10.60;;;;;;4358983;32;20160;-64
2021/03/01 09:31:53;;;;;;;8.55;5.65;;;25.30;10.70;;;;;;4350154;32;20460;-61
2021/03/01 09:34:22;;;;;;;10.75;6.62;;;25.20;10.70;;;;;;4363843;32;20158;-60
2021/03/01 09:36:48;;;;;;;8.55;5.68;;;25.30;10.60;;;;;;4372711;32;20448;-59
2021/03/01 09:39:25;;;;;;;8.43;5.53;;;25.50;10.60;;;;;;4370375;32;20118;-59
2021/03/01 09:41:56;;;;;;;9.55;5.82;;;25.30;10.60;;;;;;4345930;32;20063;-59
2021/03/01 09:44:30;;;;;;;9.85;6.18;;;25.30;10.70;;;;;;4376466;32;20116;-59
2021/03/01 09:46:57;;;;;;;7.78;5.43;;;25.30;10.80;;;;;;4376490;32;20069;-60
2021/03/01 09:49:24;;;;;;;10.48;6.00;;;25.30;10.90;;;;;;4363250;32;20522;-60
2021/03/01 09:51:50;;;;;;;9.52;5.95;;;25.40;10.80;;;;;;4365982;32;20086;-61
2021/03/01 09:54:16;;;;;;;9.15;5.30;;;25.40;10.80;;;;;;4346419;32;20105;-60
2021/03/01 09:56:49;;;;;;;7.65;5.22;;;25.40;10.90;;;;;;4366176;32;20088;-59
2021/03/01 09:59:35;;;;;;;8.25;4.18;;;25.40;10.90;;;;;;4366672;32;20066;-61
2021/03/01 10:02:11;;;;;;;9.55;4.97;;;25.30;11.00;;;;;;4369693;32;20070;-61
2021/03/01 10:04:38;;;;;;;9.00;6.30;;;25.40;11.00;;;;;;4368758;32;20077;-58
2021/03/01 10:07:25;;;;;;;9.48;5.70;;;25.30;11.10;;;;;;4375608;32;20097;-60
2021/03/01 10:09:52;;;;;;;7.22;4.75;;;25.30;11.00;;;;;;4374504;32;20476;-58
2021/03/01 10:12:19;;;;;;;9.38;5.57;;;25.40;11.00;;;;;;4359864;32;20074;-58
2021/03/01 10:14:45;;;;;;;8.48;5.75;;;25.60;11.00;;;;;;4373156;32;20141;-58
2021/03/01 10:17:30;;;;;;;6.72;4.93;;;25.50;11.00;;;;;;4367492;32;20098;-59
2021/03/01 10:20:08;;;;;;;8.50;5.43;;;25.30;11.10;;;;;;4372743;32;20440;-57
2021/03/01 10:23:03;;;;;;;8.57;5.15;;;25.40;11.10;;;;;;4374756;32;20166;-57
2021/03/01 10:25:36;;;;;;;8.68;5.10;;;25.50;11.30;;;;;;4380808;32;20178;-59
2021/03/01 10:28:27;;;;;;;8.00;6.20;;;25.60;11.30;;;;;;4361429;32;20114;-57
2021/03/01 10:31:04;;;;;;;9.98;5.50;;;25.70;11.40;;;;;;4372383;32;20468;-60
2021/03/01 10:33:31;;;;;;;9.45;6.03;;;25.90;11.50;;;;;;4360714;32;20152;-59
2021/03/01 10:36:09;;;;;;;8.77;5.05;;;25.80;11.70;;;;;;4351946;32;20066;-60
2021/03/01 10:38:56;;;;;;;7.12;5.22;;;25.90;12.00;;;;;;4358548;32;20102;-59
2021/03/01 10:41:26;;;;;;;8.38;5.55;;;25.90;12.10;;;;;;4366419;32;20134;-60
2021/03/01 10:44:00;;;;;;;9.00;6.35;;;25.90;12.20;;;;;;4363498;32;20073;-61
2021/03/01 10:46:38;;;;;;;8.98;5.68;;;25.90;12.60;;;;;;4381093;32;20107;-64
2021/03/01 10:49:33;;;;;;;7.90;3.95;;;22.30;10.90;;;;;;4383988;32;20077;-60
2021/03/01 10:51:59;;;;;;;6.80;4.55;;;22.00;15.40;;;;;;4378537;32;20116;-59
2021/03/01 10:54:26;;;;;;;9.27;5.50;;;24.00;13.20;;;;;;4381377;32;20077;-61
2021/03/01 10:56:53;;;;;;;10.05;5.32;;;24.70;12.50;;;;;;4379588;32;20057;-59
2021/03/01 10:59:19;;;;;;;8.43;4.62;;;25.20;12.10;;;;;;4355399;32;20161;-61
2021/03/01 11:01:47;;;;;;;9.05;6.00;;;25.40;12.00;;;;;;4365757;32;20097;-61
2021/03/01 11:04:14;;;;;;;7.32;4.60;;;25.70;12.00;;;;;;4355772;32;20073;-62
2021/03/01 11:06:41;;;;;;;11.10;6.43;;;25.60;12.00;;;;;;4341045;32;20113;-61
2021/03/01 11:09:09;;;;;;;11.40;6.90;;;25.70;11.90;;;;;;4345668;32;20508;-59
2021/03/01 11:11:37;;;;;;;8.57;6.12;;;25.80;12.20;;;;;;4352634;32;20249;-62
2021/03/01 11:14:04;;;;;;;8.23;6.00;;;25.90;12.10;;;;;;4364421;32;20100;-62
2021/03/01 11:16:30;;;;;;;6.20;4.50;;;26.10;12.30;;;;;;4366474;32;20073;-60
2021/03/01 11:18:57;;;;;;;8.77;5.72;;;25.90;12.50;;;;;;4363659;32;20193;-59
2021/03/01 11:21:23;;;;;;;8.50;4.60;;;25.90;12.80;;;;;;4360045;32;20070;-60
2021/03/01 11:23:49;;;;;;;7.97;4.87;;;26.00;12.80;;;;;;4368346;32;20102;-59
2021/03/01 11:26:15;;;;;;;8.13;5.05;;;26.20;12.70;;;;;;4364588;32;20517;-62
2021/03/01 11:28:42;;;;;;;8.25;5.80;;;26.20;12.90;;;;;;4356002;32;20090;-62
2021/03/01 11:31:09;;;;;;;10.10;5.30;;;26.10;12.90;;;;;;4363376;32;20086;-60
2021/03/01 11:33:35;;;;;;;9.93;6.30;;;26.10;13.10;;;;;;4357497;32;20185;-59
2021/03/01 11:36:01;;;;;;;8.38;5.72;;;26.10;13.00;;;;;;4353364;32;20210;-58
2021/03/01 11:38:28;;;;;;;9.43;5.20;;;26.10;13.10;;;;;;4358532;32;20180;-58
2021/03/01 11:40:55;;;;;;;10.63;5.93;;;26.10;13.10;;;;;;4366593;32;20137;-58
2021/03/01 11:43:21;;;;;;;10.25;6.10;;;26.10;13.10;;;;;;4379446;32;20119;-59
2021/03/01 11:45:48;;;;;;;8.80;6.40;;;26.30;13.00;;;;;;4364187;32;20069;-61
2021/03/01 11:48:15;;;;;;;11.75;7.90;;;26.20;13.00;;;;;;4328271;32;20980;-58
2021/03/01 11:50:43;;;;;;;9.25;5.65;;;26.10;13.10;;;;;;4345590;32;20186;-56
2021/03/01 11:53:09;;;;;;;15.63;9.75;;;26.10;13.20;;;;;;4356536;32;20199;-60
2021/03/01 11:55:37;;;;;;;12.43;6.78;;;26.10;13.10;;;;;;4364393;32;20530;-60
2021/03/01 11:58:03;;;;;;;8.00;4.80;;;26.20;13.20;;;;;;4354007;32;20103;-59
2021/03/01 12:00:30;;;;;;;9.57;5.50;;;26.20;13.10;;;;;;4378518;32;20130;-60
2021/03/01 12:02:56;;;;;;;8.90;5.97;;;26.20;13.10;;;;;;4381269;32;20169;-59
2021/03/01 12:05:22;;;;;;;9.98;5.70;;;26.20;13.10;;;;;;4381810;32;20592;-59
2021/03/01 12:07:49;;;;;;;8.30;5.43;;;26.20;13.20;;;;;;4365865;32;20070;-62
2021/03/01 12:10:15;;;;;;;8.30;6.07;;;26.20;13.20;;;;;;4331350;32;20182;-59
2021/03/01 12:12:41;;;;;;;9.60;6.62;;;26.10;13.30;;;;;;4383864;32;20070;-56
2021/03/01 12:15:08;;;;;;;8.63;6.30;;;26.20;13.30;;;;;;4350568;32;20489;-62
2021/03/01 12:17:36;;;;;;;11.48;6.12;;;26.20;13.30;;;;;;4368814;32;20079;-60
2021/03/01 12:20:06;;;;;;;9.02;5.90;;;26.10;13.30;;;;;;4369581;32;20447;-57
2021/03/01 12:22:32;;;;;;;8.85;5.25;;;26.10;13.40;;;;;;4369678;32;20202;-62
2021/03/01 12:24:59;;;;;;;8.23;5.62;;;26.20;13.20;;;;;;4359029;32;20078;-63
2021/03/01 12:27:25;;;;;;;8.90;5.68;;;26.30;13.20;;;;;;4356876;32;20155;-60
2021/03/01 12:29:52;;;;;;;7.95;5.43;;;26.30;13.20;;;;;;4380362;32;20138;-61
2021/03/01 12:32:19;;;;;;;9.00;6.05;;;26.30;13.20;;;;;;4370747;32;21151;-59
2021/03/01 12:34:46;;;;;;;9.13;6.20;;;26.40;13.10;;;;;;4372057;32;20438;-59
2021/03/01 12:37:12;;;;;;;9.27;5.78;;;26.30;13.20;;;;;;4378410;32;20061;-61
2021/03/01 12:39:39;;;;;;;7.43;5.32;;;26.20;13.30;;;;;;4354423;32;20135;-60
2021/03/01 12:42:06;;;;;;;8.20;5.68;;;26.20;13.20;;;;;;4360884;32;20070;-59
2021/03/01 12:44:33;;;;;;;10.30;6.05;;;26.10;13.20;;;;;;4371644;32;20117;-59
2021/03/01 12:47:00;;;;;;;9.32;5.53;;;26.20;13.30;;;;;;4357248;32;20390;-61
2021/03/01 12:49:26;;;;;;;9.98;5.70;;;26.30;13.30;;;;;;4360528;32;20165;-60
2021/03/01 12:51:54;;;;;;;9.15;6.18;;;26.30;13.20;;;;;;4383994;32;20062;-58
2021/03/01 12:54:20;;;;;;;9.35;6.43;;;26.50;13.20;;;;;;4350298;32;20142;-58
2021/03/01 12:56:46;;;;;;;9.88;5.12;;;22.20;9.70;;;;;;4365427;32;20064;-57
2021/03/01 12:59:12;;;;;;;9.73;5.57;;;17.20;13.40;;;;;;4354997;32;20576;-57
2021/03/01 13:01:38;;;;;;;9.13;5.65;;;18.90;16.20;;;;;;4361560;32;20071;-61